sensor_id;sensor_type;location;lat;lon;timestamp;P1;durP1;ratioP1;P2;durP2;ratioP2
10246;SDS011;5168;47.854;7.944;2022-07-17T00:00:45;2.33;;;2.13;;
10246;SDS011;5168;47.854;7.944;2022-07-17T00:03:15;2.10;;;1.90;;
10246;SDS011;5168;47.854;7.944;2022-07-17T00:05:42;2.47;;;2.27;;
10246;SDS011;5168;47.854;7.944;2022-07-17T00:08:09;2.23;;;1.90;;
10246;SDS011;5168;47.854;7.944;2022-07-17T00:10:36;2.93;;;2.20;;
10246;SDS011;5168;47.854;7.944;2022-07-17T00:13:03;2.13;;;1.93;;
10246;SDS011;5168;47.854;7.944;2022-07-17T00:15:30;2.90;;;2.10;;
10246;SDS011;5168;47.854;7.944;2022-07-17T00:17:57;2.30;;;2.10;;
10246;SDS011;5168;47.854;7.944;2022-07-17T00:20:24;3.10;;;2.10;;
10246;SDS011;5168;47.854;7.944;2022-07-17T00:22:50;5.53;;;2.30;;
10246;SDS011;5168;47.854;7.944;2022-07-17T00:25:20;2.13;;;1.93;;
10246;SDS011;5168;47.854;7.944;2022-07-17T00:27:46;3.63;;;1.90;;
10246;SDS011;5168;47.854;7.944;2022-07-17T00:30:12;3.13;;;1.97;;
10246;SDS011;5168;47.854;7.944;2022-07-17T00:32:38;2.73;;;2.30;;
10246;SDS011;5168;47.854;7.944;2022-07-17T00:35:05;1.90;;;1.80;;
10246;SDS011;5168;47.854;7.944;2022-07-17T00:37:37;2.47;;;2.10;;
10246;SDS011;5168;47.854;7.944;2022-07-17T00:40:07;3.23;;;2.33;;
10246;SDS011;5168;47.854;7.944;2022-07-17T00:42:33;2.40;;;1.90;;
10246;SDS011;5168;47.854;7.944;2022-07-17T00:44:59;2.50;;;2.07;;
10246;SDS011;5168;47.854;7.944;2022-07-17T00:47:25;3.27;;;2.20;;
10246;SDS011;5168;47.854;7.944;2022-07-17T00:49:51;4.10;;;2.10;;
10246;SDS011;5168;47.854;7.944;2022-07-17T00:52:17;2.77;;;2.00;;
10246;SDS011;5168;47.854;7.944;2022-07-17T00:54:43;3.37;;;2.23;;
10246;SDS011;5168;47.854;7.944;2022-07-17T00:57:11;2.80;;;2.30;;
10246;SDS011;5168;47.854;7.944;2022-07-17T00:59:38;2.37;;;2.17;;
10246;SDS011;5168;47.854;7.944;2022-07-17T01:02:09;3.20;;;1.70;;
10246;SDS011;5168;47.854;7.944;2022-07-17T01:04:37;3.10;;;2.03;;
10246;SDS011;5168;47.854;7.944;2022-07-17T01:07:03;3.60;;;1.93;;
10246;SDS011;5168;47.854;7.944;2022-07-17T01:09:30;2.13;;;1.93;;
10246;SDS011;5168;47.854;7.944;2022-07-17T01:11:57;2.77;;;2.10;;
10246;SDS011;5168;47.854;7.944;2022-07-17T01:14:23;2.43;;;1.93;;
10246;SDS011;5168;47.854;7.944;2022-07-17T01:16:50;2.50;;;1.90;;
10246;SDS011;5168;47.854;7.944;2022-07-17T01:19:16;3.20;;;1.90;;
10246;SDS011;5168;47.854;7.944;2022-07-17T01:21:43;3.50;;;2.20;;
10246;SDS011;5168;47.854;7.944;2022-07-17T01:24:10;3.03;;;2.00;;
10246;SDS011;5168;47.854;7.944;2022-07-17T01:26:36;3.33;;;2.23;;
10246;SDS011;5168;47.854;7.944;2022-07-17T01:29:02;3.90;;;2.13;;
10246;SDS011;5168;47.854;7.944;2022-07-17T01:31:28;3.13;;;1.97;;
10246;SDS011;5168;47.854;7.944;2022-07-17T01:33:54;2.83;;;2.00;;
10246;SDS011;5168;47.854;7.944;2022-07-17T01:36:23;2.07;;;1.87;;
10246;SDS011;5168;47.854;7.944;2022-07-17T01:38:49;4.70;;;1.93;;
10246;SDS011;5168;47.854;7.944;2022-07-17T01:41:16;4.27;;;2.00;;
10246;SDS011;5168;47.854;7.944;2022-07-17T01:43:42;2.10;;;1.90;;
10246;SDS011;5168;47.854;7.944;2022-07-17T01:46:07;2.77;;;2.00;;
10246;SDS011;5168;47.854;7.944;2022-07-17T01:48:33;5.37;;;2.07;;
10246;SDS011;5168;47.854;7.944;2022-07-17T01:50:59;4.07;;;2.10;;
10246;SDS011;5168;47.854;7.944;2022-07-17T01:53:25;2.73;;;1.80;;
10246;SDS011;5168;47.854;7.944;2022-07-17T01:55:50;2.13;;;1.87;;
10246;SDS011;5168;47.854;7.944;2022-07-17T01:58:16;3.20;;;1.90;;
10246;SDS011;5168;47.854;7.944;2022-07-17T02:00:42;2.97;;;1.97;;
10246;SDS011;5168;47.854;7.944;2022-07-17T02:03:08;3.43;;;2.17;;
10246;SDS011;5168;47.854;7.944;2022-07-17T02:05:34;3.40;;;2.00;;
10246;SDS011;5168;47.854;7.944;2022-07-17T02:07:59;2.20;;;2.00;;
10246;SDS011;5168;47.854;7.944;2022-07-17T02:10:25;3.43;;;2.07;;
10246;SDS011;5168;47.854;7.944;2022-07-17T02:12:51;3.87;;;2.10;;
10246;SDS011;5168;47.854;7.944;2022-07-17T02:15:17;2.57;;;2.20;;
10246;SDS011;5168;47.854;7.944;2022-07-17T02:17:43;4.70;;;2.40;;
10246;SDS011;5168;47.854;7.944;2022-07-17T02:20:09;2.43;;;1.90;;
10246;SDS011;5168;47.854;7.944;2022-07-17T02:22:36;2.83;;;2.10;;
10246;SDS011;5168;47.854;7.944;2022-07-17T02:25:02;2.10;;;1.90;;
10246;SDS011;5168;47.854;7.944;2022-07-17T02:27:30;4.30;;;2.13;;
10246;SDS011;5168;47.854;7.944;2022-07-17T02:29:56;4.13;;;2.33;;
10246;SDS011;5168;47.854;7.944;2022-07-17T02:32:22;2.57;;;2.13;;
10246;SDS011;5168;47.854;7.944;2022-07-17T02:34:48;3.27;;;2.10;;
10246;SDS011;5168;47.854;7.944;2022-07-17T02:37:13;1.97;;;1.87;;
10246;SDS011;5168;47.854;7.944;2022-07-17T02:39:39;2.07;;;1.90;;
10246;SDS011;5168;47.854;7.944;2022-07-17T02:42:17;4.17;;;2.20;;
10246;SDS011;5168;47.854;7.944;2022-07-17T02:44:46;2.67;;;2.30;;
10246;SDS011;5168;47.854;7.944;2022-07-17T02:47:13;3.70;;;2.50;;
10246;SDS011;5168;47.854;7.944;2022-07-17T02:49:46;2.77;;;2.17;;
10246;SDS011;5168;47.854;7.944;2022-07-17T02:52:12;2.40;;;2.20;;
10246;SDS011;5168;47.854;7.944;2022-07-17T02:54:37;3.00;;;2.30;;
10246;SDS011;5168;47.854;7.944;2022-07-17T02:57:03;2.67;;;2.30;;
10246;SDS011;5168;47.854;7.944;2022-07-17T02:59:29;3.37;;;2.30;;
10246;SDS011;5168;47.854;7.944;2022-07-17T03:01:55;2.97;;;2.07;;
10246;SDS011;5168;47.854;7.944;2022-07-17T03:04:20;3.90;;;2.13;;
10246;SDS011;5168;47.854;7.944;2022-07-17T03:06:46;4.57;;;2.30;;
10246;SDS011;5168;47.854;7.944;2022-07-17T03:09:11;3.07;;;2.20;;
10246;SDS011;5168;47.854;7.944;2022-07-17T03:11:37;3.87;;;2.27;;
10246;SDS011;5168;47.854;7.944;2022-07-17T03:14:03;5.87;;;2.17;;
10246;SDS011;5168;47.854;7.944;2022-07-17T03:16:28;5.50;;;2.70;;
10246;SDS011;5168;47.854;7.944;2022-07-17T03:18:54;2.50;;;2.10;;
10246;SDS011;5168;47.854;7.944;2022-07-17T03:21:19;2.23;;;2.00;;
10246;SDS011;5168;47.854;7.944;2022-07-17T03:23:45;3.10;;;2.23;;
10246;SDS011;5168;47.854;7.944;2022-07-17T03:26:10;3.80;;;2.40;;
10246;SDS011;5168;47.854;7.944;2022-07-17T03:28:36;3.13;;;2.10;;
10246;SDS011;5168;47.854;7.944;2022-07-17T03:31:01;2.40;;;2.20;;
10246;SDS011;5168;47.854;7.944;2022-07-17T03:33:27;3.00;;;2.23;;
10246;SDS011;5168;47.854;7.944;2022-07-17T03:35:53;4.53;;;2.53;;
10246;SDS011;5168;47.854;7.944;2022-07-17T03:38:19;3.97;;;2.10;;
10246;SDS011;5168;47.854;7.944;2022-07-17T03:40:44;4.20;;;2.43;;
10246;SDS011;5168;47.854;7.944;2022-07-17T03:43:10;2.33;;;2.07;;
10246;SDS011;5168;47.854;7.944;2022-07-17T03:45:37;2.87;;;2.50;;
10246;SDS011;5168;47.854;7.944;2022-07-17T03:48:03;4.83;;;2.37;;
10246;SDS011;5168;47.854;7.944;2022-07-17T03:50:28;3.00;;;2.20;;
10246;SDS011;5168;47.854;7.944;2022-07-17T03:52:54;3.23;;;2.23;;
10246;SDS011;5168;47.854;7.944;2022-07-17T03:55:20;3.87;;;2.13;;
10246;SDS011;5168;47.854;7.944;2022-07-17T03:57:46;4.23;;;2.20;;
10246;SDS011;5168;47.854;7.944;2022-07-17T04:00:11;3.13;;;2.30;;
10246;SDS011;5168;47.854;7.944;2022-07-17T04:02:37;3.80;;;2.13;;
10246;SDS011;5168;47.854;7.944;2022-07-17T04:05:03;2.73;;;1.90;;
10246;SDS011;5168;47.854;7.944;2022-07-17T04:07:29;3.50;;;2.27;;
10246;SDS011;5168;47.854;7.944;2022-07-17T04:09:56;4.10;;;2.30;;
10246;SDS011;5168;47.854;7.944;2022-07-17T04:12:23;3.00;;;2.23;;
10246;SDS011;5168;47.854;7.944;2022-07-17T04:14:49;3.00;;;2.13;;
10246;SDS011;5168;47.854;7.944;2022-07-17T04:17:15;4.90;;;2.30;;
10246;SDS011;5168;47.854;7.944;2022-07-17T04:19:41;4.13;;;2.43;;
10246;SDS011;5168;47.854;7.944;2022-07-17T04:22:06;6.20;;;2.17;;
10246;SDS011;5168;47.854;7.944;2022-07-17T04:24:32;2.33;;;2.10;;
10246;SDS011;5168;47.854;7.944;2022-07-17T04:26:58;2.60;;;2.27;;
10246;SDS011;5168;47.854;7.944;2022-07-17T04:29:24;6.63;;;2.30;;
10246;SDS011;5168;47.854;7.944;2022-07-17T04:31:49;5.30;;;1.90;;
10246;SDS011;5168;47.854;7.944;2022-07-17T04:34:16;2.33;;;2.13;;
10246;SDS011;5168;47.854;7.944;2022-07-17T04:36:42;1.83;;;1.73;;
10246;SDS011;5168;47.854;7.944;2022-07-17T04:39:07;4.20;;;2.30;;
10246;SDS011;5168;47.854;7.944;2022-07-17T04:41:33;2.80;;;2.30;;
10246;SDS011;5168;47.854;7.944;2022-07-17T04:43:59;2.67;;;2.00;;
10246;SDS011;5168;47.854;7.944;2022-07-17T04:46:24;3.80;;;2.37;;
10246;SDS011;5168;47.854;7.944;2022-07-17T04:48:50;3.03;;;2.00;;
10246;SDS011;5168;47.854;7.944;2022-07-17T04:51:15;3.30;;;2.10;;
10246;SDS011;5168;47.854;7.944;2022-07-17T04:53:41;2.43;;;2.23;;
10246;SDS011;5168;47.854;7.944;2022-07-17T04:56:06;5.57;;;2.30;;
10246;SDS011;5168;47.854;7.944;2022-07-17T04:58:32;3.33;;;2.10;;
10246;SDS011;5168;47.854;7.944;2022-07-17T05:00:58;6.80;;;1.90;;
10246;SDS011;5168;47.854;7.944;2022-07-17T05:03:24;2.23;;;2.00;;
10246;SDS011;5168;47.854;7.944;2022-07-17T05:05:50;2.67;;;1.93;;
10246;SDS011;5168;47.854;7.944;2022-07-17T05:08:15;2.30;;;2.00;;
10246;SDS011;5168;47.854;7.944;2022-07-17T05:10:42;2.63;;;2.23;;
10246;SDS011;5168;47.854;7.944;2022-07-17T05:13:07;3.07;;;2.43;;
10246;SDS011;5168;47.854;7.944;2022-07-17T05:15:33;2.30;;;2.00;;
10246;SDS011;5168;47.854;7.944;2022-07-17T05:17:59;3.03;;;2.20;;
10246;SDS011;5168;47.854;7.944;2022-07-17T05:20:24;2.83;;;2.10;;
10246;SDS011;5168;47.854;7.944;2022-07-17T05:22:50;3.60;;;2.13;;
10246;SDS011;5168;47.854;7.944;2022-07-17T05:25:16;2.20;;;2.00;;
10246;SDS011;5168;47.854;7.944;2022-07-17T05:27:42;4.37;;;2.00;;
10246;SDS011;5168;47.854;7.944;2022-07-17T05:30:08;2.00;;;1.80;;
10246;SDS011;5168;47.854;7.944;2022-07-17T05:32:34;2.33;;;2.13;;
10246;SDS011;5168;47.854;7.944;2022-07-17T05:35:00;2.30;;;1.90;;
10246;SDS011;5168;47.854;7.944;2022-07-17T05:37:26;3.00;;;1.90;;
10246;SDS011;5168;47.854;7.944;2022-07-17T05:39:51;2.60;;;2.00;;
10246;SDS011;5168;47.854;7.944;2022-07-17T05:42:17;2.03;;;1.80;;
10246;SDS011;5168;47.854;7.944;2022-07-17T05:44:43;2.30;;;1.90;;
10246;SDS011;5168;47.854;7.944;2022-07-17T05:47:08;2.47;;;1.90;;
10246;SDS011;5168;47.854;7.944;2022-07-17T05:49:34;2.53;;;1.90;;
10246;SDS011;5168;47.854;7.944;2022-07-17T05:51:59;3.93;;;2.10;;
10246;SDS011;5168;47.854;7.944;2022-07-17T05:54:25;2.87;;;1.87;;
10246;SDS011;5168;47.854;7.944;2022-07-17T05:56:51;2.53;;;1.90;;
10246;SDS011;5168;47.854;7.944;2022-07-17T05:59:17;3.87;;;1.90;;
10246;SDS011;5168;47.854;7.944;2022-07-17T06:01:42;4.43;;;2.10;;
10246;SDS011;5168;47.854;7.944;2022-07-17T06:04:08;2.83;;;1.80;;
10246;SDS011;5168;47.854;7.944;2022-07-17T06:06:34;1.97;;;1.70;;
10246;SDS011;5168;47.854;7.944;2022-07-17T06:09:00;3.07;;;1.77;;
10246;SDS011;5168;47.854;7.944;2022-07-17T06:11:26;2.53;;;1.80;;
10246;SDS011;5168;47.854;7.944;2022-07-17T06:13:52;2.97;;;1.83;;
10246;SDS011;5168;47.854;7.944;2022-07-17T06:16:17;4.00;;;1.90;;
10246;SDS011;5168;47.854;7.944;2022-07-17T06:18:43;2.93;;;2.03;;
10246;SDS011;5168;47.854;7.944;2022-07-17T06:21:09;3.20;;;1.70;;
10246;SDS011;5168;47.854;7.944;2022-07-17T06:23:35;3.87;;;1.90;;
10246;SDS011;5168;47.854;7.944;2022-07-17T06:26:00;1.90;;;1.70;;
10246;SDS011;5168;47.854;7.944;2022-07-17T06:28:26;2.40;;;1.50;;
10246;SDS011;5168;47.854;7.944;2022-07-17T06:30:51;2.40;;;1.67;;
10246;SDS011;5168;47.854;7.944;2022-07-17T06:33:17;1.97;;;1.63;;
10246;SDS011;5168;47.854;7.944;2022-07-17T06:35:43;2.00;;;1.70;;
10246;SDS011;5168;47.854;7.944;2022-07-17T06:38:09;2.03;;;1.70;;
10246;SDS011;5168;47.854;7.944;2022-07-17T06:40:35;2.47;;;1.70;;
10246;SDS011;5168;47.854;7.944;2022-07-17T06:43:01;7.40;;;1.80;;
10246;SDS011;5168;47.854;7.944;2022-07-17T06:45:29;3.13;;;1.60;;
10246;SDS011;5168;47.854;7.944;2022-07-17T06:47:55;2.47;;;1.77;;
10246;SDS011;5168;47.854;7.944;2022-07-17T06:50:21;1.67;;;1.57;;
10246;SDS011;5168;47.854;7.944;2022-07-17T06:52:47;1.67;;;1.57;;
10246;SDS011;5168;47.854;7.944;2022-07-17T06:55:13;2.27;;;1.80;;
10246;SDS011;5168;47.854;7.944;2022-07-17T06:57:38;2.23;;;1.60;;
10246;SDS011;5168;47.854;7.944;2022-07-17T07:00:04;2.00;;;1.60;;
10246;SDS011;5168;47.854;7.944;2022-07-17T07:02:30;1.70;;;1.60;;
10246;SDS011;5168;47.854;7.944;2022-07-17T07:04:56;2.87;;;1.60;;
10246;SDS011;5168;47.854;7.944;2022-07-17T07:07:22;3.53;;;2.00;;
10246;SDS011;5168;47.854;7.944;2022-07-17T07:09:48;4.40;;;1.80;;
10246;SDS011;5168;47.854;7.944;2022-07-17T07:12:15;3.97;;;1.70;;
10246;SDS011;5168;47.854;7.944;2022-07-17T07:14:41;1.73;;;1.53;;
10246;SDS011;5168;47.854;7.944;2022-07-17T07:17:06;6.43;;;2.10;;
10246;SDS011;5168;47.854;7.944;2022-07-17T07:19:32;1.90;;;1.63;;
10246;SDS011;5168;47.854;7.944;2022-07-17T07:21:58;3.00;;;1.63;;
10246;SDS011;5168;47.854;7.944;2022-07-17T07:24:23;2.17;;;1.63;;
10246;SDS011;5168;47.854;7.944;2022-07-17T07:26:49;1.88;;;1.70;;
10246;SDS011;5168;47.854;7.944;2022-07-17T07:29:15;2.22;;;1.90;;
10246;SDS011;5168;47.854;7.944;2022-07-17T07:31:41;2.60;;;1.80;;
10246;SDS011;5168;47.854;7.944;2022-07-17T07:34:06;3.60;;;1.60;;
10246;SDS011;5168;47.854;7.944;2022-07-17T07:36:32;2.80;;;1.77;;
10246;SDS011;5168;47.854;7.944;2022-07-17T07:38:58;3.42;;;1.98;;
10246;SDS011;5168;47.854;7.944;2022-07-17T07:41:24;5.53;;;1.80;;
10246;SDS011;5168;47.854;7.944;2022-07-17T07:43:50;2.25;;;1.70;;
10246;SDS011;5168;47.854;7.944;2022-07-17T07:46:16;3.63;;;2.03;;
10246;SDS011;5168;47.854;7.944;2022-07-17T07:48:41;2.35;;;1.70;;
10246;SDS011;5168;47.854;7.944;2022-07-17T07:51:07;2.40;;;1.60;;
10246;SDS011;5168;47.854;7.944;2022-07-17T07:53:33;3.85;;;1.70;;
10246;SDS011;5168;47.854;7.944;2022-07-17T07:55:58;2.40;;;1.70;;
10246;SDS011;5168;47.854;7.944;2022-07-17T07:58:24;4.07;;;1.70;;
10246;SDS011;5168;47.854;7.944;2022-07-17T08:00:50;2.97;;;1.95;;
10246;SDS011;5168;47.854;7.944;2022-07-17T08:03:16;2.35;;;2.00;;
10246;SDS011;5168;47.854;7.944;2022-07-17T08:05:42;1.80;;;1.63;;
10246;SDS011;5168;47.854;7.944;2022-07-17T08:08:08;2.05;;;1.60;;
10246;SDS011;5168;47.854;7.944;2022-07-17T08:10:34;4.25;;;1.88;;
10246;SDS011;5168;47.854;7.944;2022-07-17T08:12:59;2.50;;;1.67;;
10246;SDS011;5168;47.854;7.944;2022-07-17T08:15:25;1.90;;;1.58;;
10246;SDS011;5168;47.854;7.944;2022-07-17T08:17:51;1.95;;;1.60;;
10246;SDS011;5168;47.854;7.944;2022-07-17T08:20:18;2.63;;;1.75;;
10246;SDS011;5168;47.854;7.944;2022-07-17T08:22:44;3.90;;;1.90;;
10246;SDS011;5168;47.854;7.944;2022-07-17T08:25:11;3.90;;;1.80;;
10246;SDS011;5168;47.854;7.944;2022-07-17T08:27:37;2.78;;;1.92;;
10246;SDS011;5168;47.854;7.944;2022-07-17T08:30:04;2.05;;;1.85;;
10246;SDS011;5168;47.854;7.944;2022-07-17T08:32:31;1.65;;;1.55;;
10246;SDS011;5168;47.854;7.944;2022-07-17T08:34:57;2.47;;;1.73;;
10246;SDS011;5168;47.854;7.944;2022-07-17T08:37:22;2.85;;;1.98;;
10246;SDS011;5168;47.854;7.944;2022-07-17T08:39:49;1.85;;;1.70;;
10246;SDS011;5168;47.854;7.944;2022-07-17T08:42:15;2.80;;;1.63;;
10246;SDS011;5168;47.854;7.944;2022-07-17T08:44:41;2.00;;;1.80;;
10246;SDS011;5168;47.854;7.944;2022-07-17T08:47:08;2.20;;;2.00;;
10246;SDS011;5168;47.854;7.944;2022-07-17T08:49:35;3.05;;;1.95;;
10246;SDS011;5168;47.854;7.944;2022-07-17T08:52:10;4.03;;;1.67;;
10246;SDS011;5168;47.854;7.944;2022-07-17T08:54:37;3.67;;;1.70;;
10246;SDS011;5168;47.854;7.944;2022-07-17T08:57:03;2.08;;;1.85;;
10246;SDS011;5168;47.854;7.944;2022-07-17T08:59:30;1.80;;;1.70;;
10246;SDS011;5168;47.854;7.944;2022-07-17T09:01:56;2.20;;;1.60;;
10246;SDS011;5168;47.854;7.944;2022-07-17T09:04:21;3.97;;;1.80;;
10246;SDS011;5168;47.854;7.944;2022-07-17T09:06:57;2.70;;;1.70;;
10246;SDS011;5168;47.854;7.944;2022-07-17T09:09:25;2.42;;;1.58;;
10246;SDS011;5168;47.854;7.944;2022-07-17T09:11:51;2.72;;;1.63;;
10246;SDS011;5168;47.854;7.944;2022-07-17T09:14:17;1.90;;;1.60;;
10246;SDS011;5168;47.854;7.944;2022-07-17T09:16:48;3.10;;;2.00;;
10246;SDS011;5168;47.854;7.944;2022-07-17T09:21:51;3.28;;;1.70;;
10246;SDS011;5168;47.854;7.944;2022-07-17T09:24:36;1.75;;;1.58;;
10246;SDS011;5168;47.854;7.944;2022-07-17T09:27:07;1.98;;;1.63;;
10246;SDS011;5168;47.854;7.944;2022-07-17T09:29:33;2.42;;;1.50;;
10246;SDS011;5168;47.854;7.944;2022-07-17T09:31:59;2.05;;;1.70;;
10246;SDS011;5168;47.854;7.944;2022-07-17T09:34:25;2.67;;;1.60;;
10246;SDS011;5168;47.854;7.944;2022-07-17T09:37:01;2.55;;;1.70;;
10246;SDS011;5168;47.854;7.944;2022-07-17T09:39:34;2.42;;;1.70;;
10246;SDS011;5168;47.854;7.944;2022-07-17T09:42:03;2.00;;;1.50;;
10246;SDS011;5168;47.854;7.944;2022-07-17T09:44:29;2.67;;;1.80;;
10246;SDS011;5168;47.854;7.944;2022-07-17T09:46:54;2.40;;;1.70;;
10246;SDS011;5168;47.854;7.944;2022-07-17T09:49:21;2.50;;;1.73;;
10246;SDS011;5168;47.854;7.944;2022-07-17T09:51:50;2.10;;;1.60;;
10246;SDS011;5168;47.854;7.944;2022-07-17T09:54:16;2.65;;;1.77;;
10246;SDS011;5168;47.854;7.944;2022-07-17T09:56:46;2.75;;;1.58;;
10246;SDS011;5168;47.854;7.944;2022-07-17T09:59:15;3.50;;;1.90;;
10246;SDS011;5168;47.854;7.944;2022-07-17T10:01:43;1.70;;;1.60;;
10246;SDS011;5168;47.854;7.944;2022-07-17T10:04:13;1.83;;;1.58;;
10246;SDS011;5168;47.854;7.944;2022-07-17T10:06:42;1.80;;;1.58;;
10246;SDS011;5168;47.854;7.944;2022-07-17T10:09:08;2.00;;;1.73;;
10246;SDS011;5168;47.854;7.944;2022-07-17T10:11:38;2.50;;;1.67;;
10246;SDS011;5168;47.854;7.944;2022-07-17T10:14:05;1.73;;;1.58;;
10246;SDS011;5168;47.854;7.944;2022-07-17T10:16:35;2.20;;;1.60;;
10246;SDS011;5168;47.854;7.944;2022-07-17T10:19:03;2.85;;;1.70;;
10246;SDS011;5168;47.854;7.944;2022-07-17T10:21:59;2.22;;;1.60;;
10246;SDS011;5168;47.854;7.944;2022-07-17T10:24:29;2.33;;;1.75;;
10246;SDS011;5168;47.854;7.944;2022-07-17T10:26:55;2.03;;;1.80;;
10246;SDS011;5168;47.854;7.944;2022-07-17T10:31:54;2.47;;;1.55;;
10246;SDS011;5168;47.854;7.944;2022-07-17T10:37:37;1.80;;;1.50;;
10246;SDS011;5168;47.854;7.944;2022-07-17T10:40:05;2.00;;;1.67;;
10246;SDS011;5168;47.854;7.944;2022-07-17T10:45:34;2.25;;;1.55;;
10246;SDS011;5168;47.854;7.944;2022-07-17T10:48:12;2.47;;;1.60;;
10246;SDS011;5168;47.854;7.944;2022-07-17T10:50:46;2.20;;;1.58;;
10246;SDS011;5168;47.854;7.944;2022-07-17T10:55:49;2.75;;;1.70;;
10246;SDS011;5168;47.854;7.944;2022-07-17T10:58:18;2.15;;;1.45;;
10246;SDS011;5168;47.854;7.944;2022-07-17T11:03:24;1.45;;;1.30;;
10246;SDS011;5168;47.854;7.944;2022-07-17T11:05:50;2.13;;;1.70;;
10246;SDS011;5168;47.854;7.944;2022-07-17T11:08:15;3.10;;;1.40;;
10246;SDS011;5168;47.854;7.944;2022-07-17T11:10:42;1.75;;;1.33;;
10246;SDS011;5168;47.854;7.944;2022-07-17T11:13:09;2.65;;;1.60;;
10246;SDS011;5168;47.854;7.944;2022-07-17T11:15:47;2.10;;;1.60;;
10246;SDS011;5168;47.854;7.944;2022-07-17T11:18:20;4.25;;;1.60;;
10246;SDS011;5168;47.854;7.944;2022-07-17T11:20:50;2.17;;;1.60;;
10246;SDS011;5168;47.854;7.944;2022-07-17T11:23:17;4.90;;;1.75;;
10246;SDS011;5168;47.854;7.944;2022-07-17T11:26:18;1.95;;;1.40;;
10246;SDS011;5168;47.854;7.944;2022-07-17T11:28:43;3.28;;;1.50;;
10246;SDS011;5168;47.854;7.944;2022-07-17T11:31:16;3.50;;;1.30;;
10246;SDS011;5168;47.854;7.944;2022-07-17T11:33:51;1.80;;;1.50;;
10246;SDS011;5168;47.854;7.944;2022-07-17T11:38:48;2.80;;;1.67;;
10246;SDS011;5168;47.854;7.944;2022-07-17T11:41:15;4.13;;;1.70;;
10246;SDS011;5168;47.854;7.944;2022-07-17T11:43:43;3.28;;;1.65;;
10246;SDS011;5168;47.854;7.944;2022-07-17T11:46:09;2.95;;;1.50;;
10246;SDS011;5168;47.854;7.944;2022-07-17T11:48:34;1.95;;;1.52;;
10246;SDS011;5168;47.854;7.944;2022-07-17T11:51:00;1.83;;;1.58;;
10246;SDS011;5168;47.854;7.944;2022-07-17T11:53:33;2.03;;;1.63;;
10246;SDS011;5168;47.854;7.944;2022-07-17T11:56:00;1.75;;;1.65;;
10246;SDS011;5168;47.854;7.944;2022-07-17T11:58:26;1.67;;;1.55;;
10246;SDS011;5168;47.854;7.944;2022-07-17T12:00:59;2.58;;;1.70;;
10246;SDS011;5168;47.854;7.944;2022-07-17T12:03:28;3.15;;;1.85;;
10246;SDS011;5168;47.854;7.944;2022-07-17T12:05:54;2.80;;;1.50;;
10246;SDS011;5168;47.854;7.944;2022-07-17T12:08:19;3.53;;;1.73;;
10246;SDS011;5168;47.854;7.944;2022-07-17T12:10:45;1.70;;;1.60;;
10246;SDS011;5168;47.854;7.944;2022-07-17T12:13:14;1.83;;;1.52;;
10246;SDS011;5168;47.854;7.944;2022-07-17T12:15:42;2.70;;;1.73;;
10246;SDS011;5168;47.854;7.944;2022-07-17T12:18:20;2.38;;;1.63;;
10246;SDS011;5168;47.854;7.944;2022-07-17T12:20:51;2.17;;;1.60;;
10246;SDS011;5168;47.854;7.944;2022-07-17T12:23:25;1.80;;;1.60;;
10246;SDS011;5168;47.854;7.944;2022-07-17T12:26:15;1.83;;;1.50;;
10246;SDS011;5168;47.854;7.944;2022-07-17T12:28:44;1.83;;;1.50;;
10246;SDS011;5168;47.854;7.944;2022-07-17T12:31:10;3.38;;;1.63;;
10246;SDS011;5168;47.854;7.944;2022-07-17T12:33:36;1.70;;;1.58;;
10246;SDS011;5168;47.854;7.944;2022-07-17T12:36:02;4.20;;;1.90;;
10246;SDS011;5168;47.854;7.944;2022-07-17T12:38:28;2.40;;;1.70;;
10246;SDS011;5168;47.854;7.944;2022-07-17T12:40:54;2.03;;;1.65;;
10246;SDS011;5168;47.854;7.944;2022-07-17T12:43:21;1.60;;;1.50;;
10246;SDS011;5168;47.854;7.944;2022-07-17T12:45:46;3.95;;;1.60;;
10246;SDS011;5168;47.854;7.944;2022-07-17T12:48:12;5.07;;;1.90;;
10246;SDS011;5168;47.854;7.944;2022-07-17T12:50:38;2.28;;;1.65;;
10246;SDS011;5168;47.854;7.944;2022-07-17T12:53:04;2.00;;;1.70;;
10246;SDS011;5168;47.854;7.944;2022-07-17T12:55:31;2.55;;;1.60;;
10246;SDS011;5168;47.854;7.944;2022-07-17T12:57:57;1.75;;;1.55;;
10246;SDS011;5168;47.854;7.944;2022-07-17T13:00:23;1.85;;;1.60;;
10246;SDS011;5168;47.854;7.944;2022-07-17T13:02:49;2.40;;;1.80;;
10246;SDS011;5168;47.854;7.944;2022-07-17T13:05:14;2.80;;;1.90;;
10246;SDS011;5168;47.854;7.944;2022-07-17T13:07:40;1.75;;;1.65;;
10246;SDS011;5168;47.854;7.944;2022-07-17T13:10:06;4.13;;;1.90;;
10246;SDS011;5168;47.854;7.944;2022-07-17T13:12:32;2.25;;;1.60;;
10246;SDS011;5168;47.854;7.944;2022-07-17T13:14:59;1.92;;;1.60;;
10246;SDS011;5168;47.854;7.944;2022-07-17T13:17:25;2.20;;;2.00;;
10246;SDS011;5168;47.854;7.944;2022-07-17T13:19:51;2.00;;;1.63;;
10246;SDS011;5168;47.854;7.944;2022-07-17T13:22:17;5.57;;;2.00;;
10246;SDS011;5168;47.854;7.944;2022-07-17T13:24:43;1.80;;;1.70;;
10246;SDS011;5168;47.854;7.944;2022-07-17T13:27:08;1.75;;;1.65;;
10246;SDS011;5168;47.854;7.944;2022-07-17T13:29:35;2.33;;;1.90;;
10246;SDS011;5168;47.854;7.944;2022-07-17T13:32:00;3.78;;;1.73;;
10246;SDS011;5168;47.854;7.944;2022-07-17T13:34:26;2.60;;;1.70;;
10246;SDS011;5168;47.854;7.944;2022-07-17T13:36:51;3.80;;;1.73;;
10246;SDS011;5168;47.854;7.944;2022-07-17T13:39:17;2.38;;;1.85;;
10246;SDS011;5168;47.854;7.944;2022-07-17T13:41:42;2.05;;;1.67;;
10246;SDS011;5168;47.854;7.944;2022-07-17T13:44:08;1.50;;;1.40;;
10246;SDS011;5168;47.854;7.944;2022-07-17T13:46:34;2.45;;;1.83;;
10246;SDS011;5168;47.854;7.944;2022-07-17T13:49:00;6.40;;;2.10;;
10246;SDS011;5168;47.854;7.944;2022-07-17T13:51:26;2.03;;;1.83;;
10246;SDS011;5168;47.854;7.944;2022-07-17T13:53:52;1.85;;;1.73;;
10246;SDS011;5168;47.854;7.944;2022-07-17T13:56:19;4.15;;;2.00;;
10246;SDS011;5168;47.854;7.944;2022-07-17T13:58:45;2.25;;;1.60;;
10246;SDS011;5168;47.854;7.944;2022-07-17T14:01:12;3.30;;;1.90;;
10246;SDS011;5168;47.854;7.944;2022-07-17T14:03:38;2.90;;;1.70;;
10246;SDS011;5168;47.854;7.944;2022-07-17T14:06:04;2.40;;;1.98;;
10246;SDS011;5168;47.854;7.944;2022-07-17T14:08:30;2.22;;;1.98;;
10246;SDS011;5168;47.854;7.944;2022-07-17T14:10:56;1.83;;;1.67;;
10246;SDS011;5168;47.854;7.944;2022-07-17T14:13:22;3.30;;;1.90;;
10246;SDS011;5168;47.854;7.944;2022-07-17T14:15:47;2.30;;;2.00;;
10246;SDS011;5168;47.854;7.944;2022-07-17T14:18:13;2.25;;;1.58;;
10246;SDS011;5168;47.854;7.944;2022-07-17T14:20:39;5.57;;;2.08;;
10246;SDS011;5168;47.854;7.944;2022-07-17T14:23:05;2.70;;;2.05;;
10246;SDS011;5168;47.854;7.944;2022-07-17T14:25:31;2.70;;;2.03;;
10246;SDS011;5168;47.854;7.944;2022-07-17T14:27:56;2.72;;;1.90;;
10246;SDS011;5168;47.854;7.944;2022-07-17T14:30:22;2.05;;;1.73;;
10246;SDS011;5168;47.854;7.944;2022-07-17T14:32:47;2.33;;;1.95;;
10246;SDS011;5168;47.854;7.944;2022-07-17T14:35:13;2.17;;;1.77;;
10246;SDS011;5168;47.854;7.944;2022-07-17T14:37:39;2.05;;;1.70;;
10246;SDS011;5168;47.854;7.944;2022-07-17T14:40:05;3.15;;;1.70;;
10246;SDS011;5168;47.854;7.944;2022-07-17T14:42:31;2.63;;;1.70;;
10246;SDS011;5168;47.854;7.944;2022-07-17T14:44:58;1.98;;;1.75;;
10246;SDS011;5168;47.854;7.944;2022-07-17T14:47:25;3.83;;;2.08;;
10246;SDS011;5168;47.854;7.944;2022-07-17T14:49:51;1.80;;;1.70;;
10246;SDS011;5168;47.854;7.944;2022-07-17T14:52:17;2.55;;;1.90;;
10246;SDS011;5168;47.854;7.944;2022-07-17T14:54:43;2.60;;;1.90;;
10246;SDS011;5168;47.854;7.944;2022-07-17T14:57:09;1.90;;;1.70;;
10246;SDS011;5168;47.854;7.944;2022-07-17T14:59:35;3.70;;;2.05;;
10246;SDS011;5168;47.854;7.944;2022-07-17T15:02:00;4.65;;;1.60;;
10246;SDS011;5168;47.854;7.944;2022-07-17T15:04:26;3.88;;;1.73;;
10246;SDS011;5168;47.854;7.944;2022-07-17T15:06:52;2.20;;;2.00;;
10246;SDS011;5168;47.854;7.944;2022-07-17T15:09:18;2.22;;;1.80;;
10246;SDS011;5168;47.854;7.944;2022-07-17T15:11:44;2.80;;;1.90;;
10246;SDS011;5168;47.854;7.944;2022-07-17T15:14:10;2.72;;;1.90;;
10246;SDS011;5168;47.854;7.944;2022-07-17T15:16:36;2.25;;;1.92;;